sensor_id;sensor_type;location;lat;lon;timestamp;temperature;humidity
68801;SHT31;55784;50.734;7.086;2022-09-13T00:01:32;16.85;78.38
68801;SHT31;55784;50.734;7.086;2022-09-13T00:03:57;16.83;78.39
68801;SHT31;55784;50.734;7.086;2022-09-13T00:06:23;16.83;78.35
68801;SHT31;55784;50.734;7.086;2022-09-13T00:08:49;16.83;78.11
68801;SHT31;55784;50.734;7.086;2022-09-13T00:11:17;16.85;78.28
68801;SHT31;55784;50.734;7.086;2022-09-13T00:13:43;16.83;78.34
68801;SHT31;55784;50.734;7.086;2022-09-13T00:16:13;16.82;78.52
68801;SHT31;55784;50.734;7.086;2022-09-13T00:18:39;16.82;78.51
68801;SHT31;55784;50.734;7.086;2022-09-13T00:21:13;16.85;78.41
68801;SHT31;55784;50.734;7.086;2022-09-13T00:23:41;16.79;78.39
68801;SHT31;55784;50.734;7.086;2022-09-13T00:26:14;16.82;78.42
68801;SHT31;55784;50.734;7.086;2022-09-13T00:28:40;16.82;78.40
68801;SHT31;55784;50.734;7.086;2022-09-13T00:31:08;16.81;78.50
68801;SHT31;55784;50.734;7.086;2022-09-13T00:33:34;16.78;78.53
68801;SHT31;55784;50.734;7.086;2022-09-13T00:36:07;16.76;78.52
68801;SHT31;55784;50.734;7.086;2022-09-13T00:38:39;16.79;78.53
68801;SHT31;55784;50.734;7.086;2022-09-13T00:41:09;16.78;78.39
68801;SHT31;55784;50.734;7.086;2022-09-13T00:43:45;16.78;78.40
68801;SHT31;55784;50.734;7.086;2022-09-13T00:46:39;16.78;78.32
68801;SHT31;55784;50.734;7.086;2022-09-13T00:49:21;16.79;78.23
68801;SHT31;55784;50.734;7.086;2022-09-13T00:51:51;16.82;78.18
68801;SHT31;55784;50.734;7.086;2022-09-13T00:54:19;16.82;78.23
68801;SHT31;55784;50.734;7.086;2022-09-13T00:56:51;16.83;78.27
68801;SHT31;55784;50.734;7.086;2022-09-13T00:59:24;16.83;78.28
68801;SHT31;55784;50.734;7.086;2022-09-13T01:01:54;16.86;78.19
68801;SHT31;55784;50.734;7.086;2022-09-13T01:04:21;16.92;78.21
68801;SHT31;55784;50.734;7.086;2022-09-13T01:06:48;16.89;78.12
68801;SHT31;55784;50.734;7.086;2022-09-13T01:09:15;16.82;78.16
68801;SHT31;55784;50.734;7.086;2022-09-13T01:12:00;16.82;78.34
68801;SHT31;55784;50.734;7.086;2022-09-13T01:14:29;16.79;78.33
68801;SHT31;55784;50.734;7.086;2022-09-13T01:16:55;16.76;78.30
68801;SHT31;55784;50.734;7.086;2022-09-13T01:19:21;16.78;78.37
68801;SHT31;55784;50.734;7.086;2022-09-13T01:22:01;16.76;78.41
68801;SHT31;55784;50.734;7.086;2022-09-13T01:25:02;16.79;78.38
68801;SHT31;55784;50.734;7.086;2022-09-13T01:27:51;16.82;78.34
68801;SHT31;55784;50.734;7.086;2022-09-13T01:30:20;16.89;78.30
68801;SHT31;55784;50.734;7.086;2022-09-13T01:38:18;16.95;77.97
68801;SHT31;55784;50.734;7.086;2022-09-13T01:41:15;17.03;77.93
68801;SHT31;55784;50.734;7.086;2022-09-13T01:44:11;17.02;77.87
68801;SHT31;55784;50.734;7.086;2022-09-13T01:46:55;17.05;77.90
68801;SHT31;55784;50.734;7.086;2022-09-13T01:49:33;17.08;77.74
68801;SHT31;55784;50.734;7.086;2022-09-13T01:52:08;17.12;77.64
68801;SHT31;55784;50.734;7.086;2022-09-13T01:54:54;17.16;77.54
68801;SHT31;55784;50.734;7.086;2022-09-13T01:57:31;17.22;77.31
68801;SHT31;55784;50.734;7.086;2022-09-13T02:05:16;17.30;77.06
68801;SHT31;55784;50.734;7.086;2022-09-13T02:08:07;17.32;77.07
68801;SHT31;55784;50.734;7.086;2022-09-13T02:10:37;17.30;77.10
68801;SHT31;55784;50.734;7.086;2022-09-13T02:13:06;17.26;77.21
68801;SHT31;55784;50.734;7.086;2022-09-13T02:15:43;17.23;77.31
68801;SHT31;55784;50.734;7.086;2022-09-13T02:18:17;17.15;77.52
68801;SHT31;55784;50.734;7.086;2022-09-13T02:20:46;17.10;77.89
68801;SHT31;55784;50.734;7.086;2022-09-13T02:23:16;17.08;77.87
68801;SHT31;55784;50.734;7.086;2022-09-13T02:25:45;17.06;78.07
68801;SHT31;55784;50.734;7.086;2022-09-13T02:28:17;17.03;78.22
68801;SHT31;55784;50.734;7.086;2022-09-13T02:30:47;17.06;78.20
68801;SHT31;55784;50.734;7.086;2022-09-13T02:33:22;17.06;78.19
68801;SHT31;55784;50.734;7.086;2022-09-13T02:35:54;17.01;78.28
68801;SHT31;55784;50.734;7.086;2022-09-13T02:41:04;17.02;78.42
68801;SHT31;55784;50.734;7.086;2022-09-13T02:43:40;17.05;78.58
68801;SHT31;55784;50.734;7.086;2022-09-13T02:46:09;17.06;78.66
68801;SHT31;55784;50.734;7.086;2022-09-13T02:48:48;17.10;78.56
68801;SHT31;55784;50.734;7.086;2022-09-13T02:54:41;17.19;78.43
68801;SHT31;55784;50.734;7.086;2022-09-13T02:57:20;17.20;78.28
68801;SHT31;55784;50.734;7.086;2022-09-13T02:59:50;17.23;78.27
68801;SHT31;55784;50.734;7.086;2022-09-13T03:02:18;17.24;78.24
68801;SHT31;55784;50.734;7.086;2022-09-13T03:04:45;17.24;78.12
68801;SHT31;55784;50.734;7.086;2022-09-13T03:07:12;17.29;78.00
68801;SHT31;55784;50.734;7.086;2022-09-13T03:09:43;17.24;77.97
68801;SHT31;55784;50.734;7.086;2022-09-13T03:12:16;17.29;77.93
68801;SHT31;55784;50.734;7.086;2022-09-13T03:17:52;17.36;77.65
68801;SHT31;55784;50.734;7.086;2022-09-13T03:34:48;17.49;77.85
68801;SHT31;55784;50.734;7.086;2022-09-13T03:40:24;17.57;79.10
68801;SHT31;55784;50.734;7.086;2022-09-13T03:42:57;17.60;78.99
68801;SHT31;55784;50.734;7.086;2022-09-13T03:45:28;17.57;79.16
68801;SHT31;55784;50.734;7.086;2022-09-13T03:47:56;17.51;79.42
68801;SHT31;55784;50.734;7.086;2022-09-13T03:50:22;17.49;79.25
68801;SHT31;55784;50.734;7.086;2022-09-13T03:52:53;17.51;79.19
68801;SHT31;55784;50.734;7.086;2022-09-13T03:55:21;17.49;78.77
68801;SHT31;55784;50.734;7.086;2022-09-13T03:57:46;17.47;78.60
68801;SHT31;55784;50.734;7.086;2022-09-13T04:00:12;17.51;78.23
68801;SHT31;55784;50.734;7.086;2022-09-13T04:02:39;17.54;78.10
68801;SHT31;55784;50.734;7.086;2022-09-13T04:05:04;17.55;78.09
68801;SHT31;55784;50.734;7.086;2022-09-13T04:07:30;17.59;77.96
68801;SHT31;55784;50.734;7.086;2022-09-13T04:09:56;17.57;78.06
68801;SHT31;55784;50.734;7.086;2022-09-13T04:12:21;17.57;77.70
68801;SHT31;55784;50.734;7.086;2022-09-13T04:14:47;17.53;77.83
68801;SHT31;55784;50.734;7.086;2022-09-13T04:17:12;17.53;77.86
68801;SHT31;55784;50.734;7.086;2022-09-13T04:19:38;17.51;77.93
68801;SHT31;55784;50.734;7.086;2022-09-13T04:22:04;17.51;77.81
68801;SHT31;55784;50.734;7.086;2022-09-13T04:24:30;17.54;77.58
68801;SHT31;55784;50.734;7.086;2022-09-13T04:26:56;17.49;77.60
68801;SHT31;55784;50.734;7.086;2022-09-13T04:29:23;17.54;77.51
68801;SHT31;55784;50.734;7.086;2022-09-13T04:31:51;17.60;77.42
68801;SHT31;55784;50.734;7.086;2022-09-13T04:34:17;17.59;77.39
68801;SHT31;55784;50.734;7.086;2022-09-13T04:36:44;17.51;77.56
68801;SHT31;55784;50.734;7.086;2022-09-13T04:39:10;17.55;77.55
68801;SHT31;55784;50.734;7.086;2022-09-13T04:41:35;17.53;77.64
68801;SHT31;55784;50.734;7.086;2022-09-13T04:44:01;17.51;77.79
68801;SHT31;55784;50.734;7.086;2022-09-13T04:46:27;17.51;77.65
68801;SHT31;55784;50.734;7.086;2022-09-13T04:48:53;17.53;77.36
68801;SHT31;55784;50.734;7.086;2022-09-13T04:51:18;17.57;77.14
68801;SHT31;55784;50.734;7.086;2022-09-13T04:53:44;17.53;77.20
68801;SHT31;55784;50.734;7.086;2022-09-13T04:56:11;17.59;77.20
68801;SHT31;55784;50.734;7.086;2022-09-13T04:58:38;17.57;77.23
68801;SHT31;55784;50.734;7.086;2022-09-13T05:01:06;17.62;77.15
68801;SHT31;55784;50.734;7.086;2022-09-13T05:03:32;17.60;77.21
68801;SHT31;55784;50.734;7.086;2022-09-13T05:06:08;17.62;77.27
68801;SHT31;55784;50.734;7.086;2022-09-13T05:08:35;17.63;77.31
68801;SHT31;55784;50.734;7.086;2022-09-13T05:11:01;17.62;77.43
68801;SHT31;55784;50.734;7.086;2022-09-13T05:13:27;17.63;77.45
68801;SHT31;55784;50.734;7.086;2022-09-13T05:16:03;17.64;77.37
68801;SHT31;55784;50.734;7.086;2022-09-13T05:18:31;17.63;77.41
68801;SHT31;55784;50.734;7.086;2022-09-13T05:20:58;17.70;77.23
68801;SHT31;55784;50.734;7.086;2022-09-13T05:23:24;17.70;77.20
68801;SHT31;55784;50.734;7.086;2022-09-13T05:25:54;17.73;77.25
68801;SHT31;55784;50.734;7.086;2022-09-13T05:28:21;17.75;77.06
68801;SHT31;55784;50.734;7.086;2022-09-13T05:31:03;17.85;76.62
68801;SHT31;55784;50.734;7.086;2022-09-13T05:33:31;17.93;76.28
68801;SHT31;55784;50.734;7.086;2022-09-13T05:35:56;17.88;76.32
68801;SHT31;55784;50.734;7.086;2022-09-13T05:38:22;17.88;76.46
68801;SHT31;55784;50.734;7.086;2022-09-13T05:40:52;17.85;76.51
68801;SHT31;55784;50.734;7.086;2022-09-13T05:43:19;17.87;76.79
68801;SHT31;55784;50.734;7.086;2022-09-13T05:45:44;17.88;76.88
68801;SHT31;55784;50.734;7.086;2022-09-13T05:48:09;17.90;76.88
68801;SHT31;55784;50.734;7.086;2022-09-13T05:50:38;17.88;76.93
68801;SHT31;55784;50.734;7.086;2022-09-13T05:53:04;17.90;76.95
68801;SHT31;55784;50.734;7.086;2022-09-13T05:55:29;17.88;76.99
68801;SHT31;55784;50.734;7.086;2022-09-13T05:57:55;17.91;77.02
68801;SHT31;55784;50.734;7.086;2022-09-13T06:00:20;17.91;76.86
68801;SHT31;55784;50.734;7.086;2022-09-13T06:02:45;18.01;76.72
68801;SHT31;55784;50.734;7.086;2022-09-13T06:05:20;18.04;76.56
68801;SHT31;55784;50.734;7.086;2022-09-13T06:07:49;18.01;76.66
68801;SHT31;55784;50.734;7.086;2022-09-13T06:10:17;18.09;76.43
68801;SHT31;55784;50.734;7.086;2022-09-13T06:12:44;18.14;76.17
68801;SHT31;55784;50.734;7.086;2022-09-13T06:15:10;18.19;76.03
68801;SHT31;55784;50.734;7.086;2022-09-13T06:17:35;18.26;75.70
68801;SHT31;55784;50.734;7.086;2022-09-13T06:20:03;18.29;75.39
68801;SHT31;55784;50.734;7.086;2022-09-13T06:39:45;19.02;72.59
68801;SHT31;55784;50.734;7.086;2022-09-13T06:42:16;19.10;72.45
68801;SHT31;55784;50.734;7.086;2022-09-13T06:44:45;19.19;72.13
68801;SHT31;55784;50.734;7.086;2022-09-13T06:47:31;19.26;71.88
68801;SHT31;55784;50.734;7.086;2022-09-13T07:04:04;19.64;70.49
68801;SHT31;55784;50.734;7.086;2022-09-13T07:10:05;19.72;70.16
68801;SHT31;55784;50.734;7.086;2022-09-13T07:16:44;19.83;69.46
68801;SHT31;55784;50.734;7.086;2022-09-13T09:48:39;25.04;54.20
68801;SHT31;55784;50.734;7.086;2022-09-13T09:51:07;25.15;53.74
68801;SHT31;55784;50.734;7.086;2022-09-13T09:53:38;24.65;54.20
68801;SHT31;55784;50.734;7.086;2022-09-13T09:58:48;24.30;55.27
68801;SHT31;55784;50.734;7.086;2022-09-13T10:06:32;24.77;54.96
68801;SHT31;55784;50.734;7.086;2022-09-13T10:11:44;24.71;54.47
68801;SHT31;55784;50.734;7.086;2022-09-13T10:14:37;24.79;54.63
68801;SHT31;55784;50.734;7.086;2022-09-13T10:17:24;24.75;54.55
68801;SHT31;55784;50.734;7.086;2022-09-13T10:19:55;24.60;54.87
68801;SHT31;55784;50.734;7.086;2022-09-13T10:22:26;24.75;54.95
68801;SHT31;55784;50.734;7.086;2022-09-13T10:24:52;24.84;54.40
68801;SHT31;55784;50.734;7.086;2022-09-13T10:27:31;24.81;54.78
68801;SHT31;55784;50.734;7.086;2022-09-13T10:29:58;24.88;54.43
68801;SHT31;55784;50.734;7.086;2022-09-13T10:32:26;25.05;54.28
68801;SHT31;55784;50.734;7.086;2022-09-13T10:34:53;25.11;54.27
68801;SHT31;55784;50.734;7.086;2022-09-13T10:37:30;25.25;54.15
68801;SHT31;55784;50.734;7.086;2022-09-13T10:40:05;25.40;54.07
68801;SHT31;55784;50.734;7.086;2022-09-13T10:42:33;25.59;53.72
68801;SHT31;55784;50.734;7.086;2022-09-13T10:45:07;25.74;53.36
68801;SHT31;55784;50.734;7.086;2022-09-13T10:47:47;25.77;52.40
68801;SHT31;55784;50.734;7.086;2022-09-13T10:50:22;25.91;52.65
68801;SHT31;55784;50.734;7.086;2022-09-13T10:52:53;26.01;53.10
68801;SHT31;55784;50.734;7.086;2022-09-13T11:00:20;26.58;51.59
68801;SHT31;55784;50.734;7.086;2022-09-13T11:06:08;26.74;51.46
68801;SHT31;55784;50.734;7.086;2022-09-13T11:17:21;27.19;50.95
68801;SHT31;55784;50.734;7.086;2022-09-13T11:19:57;27.45;50.57
68801;SHT31;55784;50.734;7.086;2022-09-13T11:22:44;27.71;49.82
68801;SHT31;55784;50.734;7.086;2022-09-13T11:28:24;28.31;48.64
68801;SHT31;55784;50.734;7.086;2022-09-13T11:40:03;28.10;48.16
68801;SHT31;55784;50.734;7.086;2022-09-13T11:42:48;27.96;48.96
68801;SHT31;55784;50.734;7.086;2022-09-13T11:45:21;27.83;49.29
68801;SHT31;55784;50.734;7.086;2022-09-13T11:53:39;27.83;49.04
68801;SHT31;55784;50.734;7.086;2022-09-13T11:56:14;28.00;48.90
68801;SHT31;55784;50.734;7.086;2022-09-13T11:58:47;27.97;49.31
68801;SHT31;55784;50.734;7.086;2022-09-13T12:01:20;27.74;49.39
68801;SHT31;55784;50.734;7.086;2022-09-13T12:04:03;27.61;50.16
68801;SHT31;55784;50.734;7.086;2022-09-13T12:06:34;27.73;49.88
68801;SHT31;55784;50.734;7.086;2022-09-13T12:11:42;27.81;49.44
68801;SHT31;55784;50.734;7.086;2022-09-13T12:14:16;27.67;49.06
68801;SHT31;55784;50.734;7.086;2022-09-13T12:16:47;27.76;49.39
68801;SHT31;55784;50.734;7.086;2022-09-13T12:19:21;27.67;49.63
68801;SHT31;55784;50.734;7.086;2022-09-13T12:21:50;27.63;49.84
68801;SHT31;55784;50.734;7.086;2022-09-13T12:24:32;27.61;49.56
68801;SHT31;55784;50.734;7.086;2022-09-13T12:32:38;27.76;50.41
68801;SHT31;55784;50.734;7.086;2022-09-13T12:35:05;27.64;50.71
68801;SHT31;55784;50.734;7.086;2022-09-13T12:46:00;27.88;50.10
68801;SHT31;55784;50.734;7.086;2022-09-13T12:48:48;27.96;49.59
68801;SHT31;55784;50.734;7.086;2022-09-13T12:54:22;28.15;49.42
68801;SHT31;55784;50.734;7.086;2022-09-13T13:02:37;28.10;49.56
68801;SHT31;55784;50.734;7.086;2022-09-13T13:05:28;28.27;49.40
68801;SHT31;55784;50.734;7.086;2022-09-13T13:07:56;28.22;49.51
68801;SHT31;55784;50.734;7.086;2022-09-13T13:10:26;28.05;49.82
68801;SHT31;55784;50.734;7.086;2022-09-13T13:12:52;28.08;49.83
68801;SHT31;55784;50.734;7.086;2022-09-13T13:17:54;28.05;49.52
68801;SHT31;55784;50.734;7.086;2022-09-13T13:20:40;27.83;49.88
68801;SHT31;55784;50.734;7.086;2022-09-13T13:25:55;27.51;50.33
68801;SHT31;55784;50.734;7.086;2022-09-13T13:39:11;27.91;50.44
68801;SHT31;55784;50.734;7.086;2022-09-13T13:41:42;28.10;49.94
68801;SHT31;55784;50.734;7.086;2022-09-13T13:46:40;28.38;49.52
68801;SHT31;55784;50.734;7.086;2022-09-13T13:57:59;28.91;47.71
68801;SHT31;55784;50.734;7.086;2022-09-13T14:00:29;29.06;47.45
68801;SHT31;55784;50.734;7.086;2022-09-13T14:03:08;29.19;47.22
68801;SHT31;55784;50.734;7.086;2022-09-13T14:06:12;29.13;46.30
68801;SHT31;55784;50.734;7.086;2022-09-13T14:09:06;28.72;46.85
68801;SHT31;55784;50.734;7.086;2022-09-13T14:11:57;28.61;47.58
68801;SHT31;55784;50.734;7.086;2022-09-13T14:14:45;28.53;46.84
68801;SHT31;55784;50.734;7.086;2022-09-13T14:17:32;28.35;45.89
68801;SHT31;55784;50.734;7.086;2022-09-13T14:20:12;28.27;46.14
68801;SHT31;55784;50.734;7.086;2022-09-13T14:22:39;28.27;46.42
68801;SHT31;55784;50.734;7.086;2022-09-13T14:27:46;28.15;46.46
68801;SHT31;55784;50.734;7.086;2022-09-13T14:30:36;27.94;46.49
68801;SHT31;55784;50.734;7.086;2022-09-13T14:33:03;27.93;46.75
68801;SHT31;55784;50.734;7.086;2022-09-13T14:38:24;28.11;46.69
68801;SHT31;55784;50.734;7.086;2022-09-13T14:40:58;28.15;46.62
68801;SHT31;55784;50.734;7.086;2022-09-13T14:43:30;28.14;45.80
68801;SHT31;55784;50.734;7.086;2022-09-13T14:46:01;28.20;47.01
68801;SHT31;55784;50.734;7.086;2022-09-13T14:48:37;28.00;48.73
68801;SHT31;55784;50.734;7.086;2022-09-13T14:51:19;27.97;48.78
68801;SHT31;55784;50.734;7.086;2022-09-13T14:53:48;27.96;49.20
68801;SHT31;55784;50.734;7.086;2022-09-13T14:56:41;27.88;50.06
68801;SHT31;55784;50.734;7.086;2022-09-13T14:59:15;27.77;50.57
68801;SHT31;55784;50.734;7.086;2022-09-13T15:01:42;27.70;51.12
68801;SHT31;55784;50.734;7.086;2022-09-13T15:04:08;27.61;51.59
68801;SHT31;55784;50.734;7.086;2022-09-13T15:06:36;27.49;52.18
68801;SHT31;55784;50.734;7.086;2022-09-13T15:11:56;27.45;52.43
68801;SHT31;55784;50.734;7.086;2022-09-13T15:16:53;27.22;53.30
68801;SHT31;55784;50.734;7.086;2022-09-13T15:21:47;27.12;53.48
68801;SHT31;55784;50.734;7.086;2022-09-13T15:24:32;27.10;53.77
68801;SHT31;55784;50.734;7.086;2022-09-13T15:34:24;26.82;54.70
68801;SHT31;55784;50.734;7.086;2022-09-13T15:51:32;26.27;56.07
68801;SHT31;55784;50.734;7.086;2022-09-13T16:04:42;25.96;58.95
68801;SHT31;55784;50.734;7.086;2022-09-13T16:31:28;24.72;70.88
68801;SHT31;55784;50.734;7.086;2022-09-13T16:37:39;24.33;73.30
68801;SHT31;55784;50.734;7.086;2022-09-13T16:51:51;23.92;75.49
68801;SHT31;55784;50.734;7.086;2022-09-13T17:08:36;23.37;78.95
68801;SHT31;55784;50.734;7.086;2022-09-13T17:11:17;23.22;79.89
68801;SHT31;55784;50.734;7.086;2022-09-13T17:16:58;23.05;81.06
68801;SHT31;55784;50.734;7.086;2022-09-13T17:19:29;23.00;81.37
68801;SHT31;55784;50.734;7.086;2022-09-13T17:22:03;22.94;80.98
68801;SHT31;55784;50.734;7.086;2022-09-13T17:24:30;22.88;81.38
68801;SHT31;55784;50.734;7.086;2022-09-13T17:26:56;22.86;81.33
68801;SHT31;55784;50.734;7.086;2022-09-13T17:29:22;22.78;81.73
68801;SHT31;55784;50.734;7.086;2022-09-13T17:31:49;22.77;81.97
68801;SHT31;55784;50.734;7.086;2022-09-13T17:34:15;22.68;82.06
68801;SHT31;55784;50.734;7.086;2022-09-13T17:36:41;22.67;82.29
68801;SHT31;55784;50.734;7.086;2022-09-13T17:39:07;22.54;82.75
68801;SHT31;55784;50.734;7.086;2022-09-13T17:41:33;22.47;83.02
68801;SHT31;55784;50.734;7.086;2022-09-13T17:43:58;22.41;83.45
68801;SHT31;55784;50.734;7.086;2022-09-13T17:46:25;22.36;84.23
68801;SHT31;55784;50.734;7.086;2022-09-13T17:48:53;22.32;84.58
68801;SHT31;55784;50.734;7.086;2022-09-13T17:51:22;22.24;84.50
68801;SHT31;55784;50.734;7.086;2022-09-13T17:53:51;22.28;84.68
68801;SHT31;55784;50.734;7.086;2022-09-13T17:56:22;22.20;84.78
68801;SHT31;55784;50.734;7.086;2022-09-13T17:58:52;22.17;85.31
68801;SHT31;55784;50.734;7.086;2022-09-13T18:01:18;22.13;85.88
68801;SHT31;55784;50.734;7.086;2022-09-13T18:03:43;22.02;86.32
68801;SHT31;55784;50.734;7.086;2022-09-13T18:06:09;21.98;86.43
68801;SHT31;55784;50.734;7.086;2022-09-13T18:08:37;21.98;85.93
68801;SHT31;55784;50.734;7.086;2022-09-13T18:11:09;21.98;86.03
68801;SHT31;55784;50.734;7.086;2022-09-13T18:13:36;22.00;86.54
68801;SHT31;55784;50.734;7.086;2022-09-13T18:16:19;21.98;86.93
68801;SHT31;55784;50.734;7.086;2022-09-13T18:18:45;21.96;87.12
68801;SHT31;55784;50.734;7.086;2022-09-13T18:21:11;21.95;87.19
68801;SHT31;55784;50.734;7.086;2022-09-13T18:23:43;21.98;86.84
68801;SHT31;55784;50.734;7.086;2022-09-13T18:26:13;21.99;84.20
68801;SHT31;55784;50.734;7.086;2022-09-13T18:28:39;21.98;85.19
68801;SHT31;55784;50.734;7.086;2022-09-13T18:31:08;21.95;85.97
68801;SHT31;55784;50.734;7.086;2022-09-13T18:33:35;21.92;86.83
68801;SHT31;55784;50.734;7.086;2022-09-13T18:36:04;21.92;86.83
68801;SHT31;55784;50.734;7.086;2022-09-13T18:38:38;21.89;87.20
68801;SHT31;55784;50.734;7.086;2022-09-13T18:41:15;21.82;86.47
68801;SHT31;55784;50.734;7.086;2022-09-13T18:43:42;21.82;86.86
68801;SHT31;55784;50.734;7.086;2022-09-13T18:46:10;21.79;87.25
68801;SHT31;55784;50.734;7.086;2022-09-13T18:48:42;21.82;87.30
68801;SHT31;55784;50.734;7.086;2022-09-13T18:51:09;21.75;86.60
68801;SHT31;55784;50.734;7.086;2022-09-13T18:53:35;21.65;86.43
68801;SHT31;55784;50.734;7.086;2022-09-13T18:56:04;21.63;86.35
68801;SHT31;55784;50.734;7.086;2022-09-13T18:58:35;21.54;86.23
68801;SHT31;55784;50.734;7.086;2022-09-13T19:01:15;21.48;85.46
68801;SHT31;55784;50.734;7.086;2022-09-13T19:03:53;21.37;84.72
68801;SHT31;55784;50.734;7.086;2022-09-13T19:06:23;21.32;85.37
68801;SHT31;55784;50.734;7.086;2022-09-13T19:08:59;21.31;85.98
68801;SHT31;55784;50.734;7.086;2022-09-13T19:14:29;21.28;86.80
68801;SHT31;55784;50.734;7.086;2022-09-13T19:17:04;21.30;87.16
68801;SHT31;55784;50.734;7.086;2022-09-13T19:22:43;21.24;87.45
68801;SHT31;55784;50.734;7.086;2022-09-13T19:25:38;21.18;87.59
68801;SHT31;55784;50.734;7.086;2022-09-13T19:28:11;21.17;87.92
68801;SHT31;55784;50.734;7.086;2022-09-13T19:30:43;21.12;87.86
68801;SHT31;55784;50.734;7.086;2022-09-13T19:33:35;21.15;88.00
68801;SHT31;55784;50.734;7.086;2022-09-13T19:36:16;21.14;87.81
68801;SHT31;55784;50.734;7.086;2022-09-13T19:38:45;21.12;88.06
68801;SHT31;55784;50.734;7.086;2022-09-13T19:41:15;21.07;88.90
68801;SHT31;55784;50.734;7.086;2022-09-13T19:43:46;21.08;89.02
68801;SHT31;55784;50.734;7.086;2022-09-13T19:46:18;21.07;88.84
68801;SHT31;55784;50.734;7.086;2022-09-13T19:48:51;21.06;88.62
68801;SHT31;55784;50.734;7.086;2022-09-13T19:51:22;21.08;88.37
68801;SHT31;55784;50.734;7.086;2022-09-13T19:57:04;21.00;88.80
68801;SHT31;55784;50.734;7.086;2022-09-13T19:59:32;20.91;89.33
68801;SHT31;55784;50.734;7.086;2022-09-13T20:02:32;20.86;89.47
68801;SHT31;55784;50.734;7.086;2022-09-13T20:04:58;20.83;89.45
68801;SHT31;55784;50.734;7.086;2022-09-13T20:07:36;20.81;89.25
68801;SHT31;55784;50.734;7.086;2022-09-13T20:10:02;20.74;89.45
68801;SHT31;55784;50.734;7.086;2022-09-13T20:12:27;20.72;89.45
68801;SHT31;55784;50.734;7.086;2022-09-13T20:14:53;20.66;89.50
68801;SHT31;55784;50.734;7.086;2022-09-13T20:17:19;20.64;89.73
68801;SHT31;55784;50.734;7.086;2022-09-13T20:19:44;20.60;89.82
68801;SHT31;55784;50.734;7.086;2022-09-13T20:22:10;20.59;90.04
68801;SHT31;55784;50.734;7.086;2022-09-13T20:24:41;20.59;90.17
68801;SHT31;55784;50.734;7.086;2022-09-13T20:27:07;20.54;90.35
68801;SHT31;55784;50.734;7.086;2022-09-13T20:29:33;20.52;90.35
68801;SHT31;55784;50.734;7.086;2022-09-13T20:31:59;20.53;90.14
68801;SHT31;55784;50.734;7.086;2022-09-13T20:34:26;20.49;90.42
68801;SHT31;55784;50.734;7.086;2022-09-13T20:37:11;20.47;90.17
68801;SHT31;55784;50.734;7.086;2022-09-13T20:39:37;20.43;90.29
68801;SHT31;55784;50.734;7.086;2022-09-13T20:42:02;20.43;90.75
68801;SHT31;55784;50.734;7.086;2022-09-13T20:44:28;20.43;90.77
68801;SHT31;55784;50.734;7.086;2022-09-13T20:46:53;20.42;90.90
68801;SHT31;55784;50.734;7.086;2022-09-13T20:49:21;20.43;90.99
68801;SHT31;55784;50.734;7.086;2022-09-13T20:51:47;20.39;91.13
68801;SHT31;55784;50.734;7.086;2022-09-13T20:54:14;20.42;91.28
68801;SHT31;55784;50.734;7.086;2022-09-13T20:56:42;20.39;91.14
68801;SHT31;55784;50.734;7.086;2022-09-13T20:59:07;20.37;90.99
68801;SHT31;55784;50.734;7.086;2022-09-13T21:01:34;20.36;90.95
68801;SHT31;55784;50.734;7.086;2022-09-13T21:03:59;20.37;90.89
68801;SHT31;55784;50.734;7.086;2022-09-13T21:06:26;20.37;90.83
68801;SHT31;55784;50.734;7.086;2022-09-13T21:08:53;20.37;90.91
68801;SHT31;55784;50.734;7.086;2022-09-13T21:11:23;20.33;91.30
68801;SHT31;55784;50.734;7.086;2022-09-13T21:13:52;20.29;91.12
68801;SHT31;55784;50.734;7.086;2022-09-13T21:16:20;20.25;90.96
68801;SHT31;55784;50.734;7.086;2022-09-13T21:18:46;20.21;90.29
68801;SHT31;55784;50.734;7.086;2022-09-13T21:21:15;20.22;90.69
68801;SHT31;55784;50.734;7.086;2022-09-13T21:23:41;20.16;90.63
68801;SHT31;55784;50.734;7.086;2022-09-13T21:26:09;20.16;90.78
68801;SHT31;55784;50.734;7.086;2022-09-13T21:28:37;20.21;90.95
68801;SHT31;55784;50.734;7.086;2022-09-13T21:31:06;20.22;91.46
68801;SHT31;55784;50.734;7.086;2022-09-13T21:33:32;20.28;91.47
68801;SHT31;55784;50.734;7.086;2022-09-13T21:35:59;20.30;91.86
68801;SHT31;55784;50.734;7.086;2022-09-13T21:38:26;20.35;92.35
68801;SHT31;55784;50.734;7.086;2022-09-13T21:41:03;20.36;92.16
68801;SHT31;55784;50.734;7.086;2022-09-13T21:43:32;20.32;92.36
68801;SHT31;55784;50.734;7.086;2022-09-13T21:46:06;20.35;92.28
68801;SHT31;55784;50.734;7.086;2022-09-13T21:48:33;20.35;92.15
68801;SHT31;55784;50.734;7.086;2022-09-13T21:51:03;20.37;92.32
68801;SHT31;55784;50.734;7.086;2022-09-13T21:53:34;20.33;92.61
68801;SHT31;55784;50.734;7.086;2022-09-13T21:56:08;20.32;92.69
68801;SHT31;55784;50.734;7.086;2022-09-13T21:58:34;20.32;92.59
68801;SHT31;55784;50.734;7.086;2022-09-13T22:01:05;20.33;92.67
68801;SHT31;55784;50.734;7.086;2022-09-13T22:03:33;20.19;93.06
68801;SHT31;55784;50.734;7.086;2022-09-13T22:05:59;20.09;93.08
68801;SHT31;55784;50.734;7.086;2022-09-13T22:08:26;20.09;93.33
68801;SHT31;55784;50.734;7.086;2022-09-13T22:10:54;20.08;93.11
68801;SHT31;55784;50.734;7.086;2022-09-13T22:13:19;20.11;93.12
68801;SHT31;55784;50.734;7.086;2022-09-13T22:15:45;19.99;93.64
68801;SHT31;55784;50.734;7.086;2022-09-13T22:18:10;19.98;93.46
68801;SHT31;55784;50.734;7.086;2022-09-13T22:20:35;20.01;93.25
68801;SHT31;55784;50.734;7.086;2022-09-13T22:23:01;19.93;93.79
68801;SHT31;55784;50.734;7.086;2022-09-13T22:25:26;19.81;94.72
68801;SHT31;55784;50.734;7.086;2022-09-13T22:27:51;19.74;95.18
68801;SHT31;55784;50.734;7.086;2022-09-13T22:30:17;19.75;95.32
68801;SHT31;55784;50.734;7.086;2022-09-13T22:32:42;19.75;95.58
68801;SHT31;55784;50.734;7.086;2022-09-13T22:35:08;19.70;95.60
68801;SHT31;55784;50.734;7.086;2022-09-13T22:37:34;19.65;96.01
68801;SHT31;55784;50.734;7.086;2022-09-13T22:40:01;19.54;96.28
68801;SHT31;55784;50.734;7.086;2022-09-13T22:42:26;19.57;96.13
68801;SHT31;55784;50.734;7.086;2022-09-13T22:44:51;19.57;96.02
68801;SHT31;55784;50.734;7.086;2022-09-13T22:47:17;19.53;96.13
68801;SHT31;55784;50.734;7.086;2022-09-13T22:49:42;19.48;96.40
68801;SHT31;55784;50.734;7.086;2022-09-13T22:52:07;19.47;96.08
68801;SHT31;55784;50.734;7.086;2022-09-13T22:54:33;19.44;96.32
68801;SHT31;55784;50.734;7.086;2022-09-13T22:56:59;19.32;95.33
68801;SHT31;55784;50.734;7.086;2022-09-13T22:59:25;19.35;95.19
68801;SHT31;55784;50.734;7.086;2022-09-13T23:01:50;19.37;94.14
68801;SHT31;55784;50.734;7.086;2022-09-13T23:04:15;19.30;92.91
68801;SHT31;55784;50.734;7.086;2022-09-13T23:06:41;19.31;92.55
68801;SHT31;55784;50.734;7.086;2022-09-13T23:09:11;19.26;92.44